Time;durP1;ratioP1;P1;durP2;ratioP2;P2;SDS_P1;SDS_P2;PMS_P1;PMS_P2;Temp;Humidity;BMP_temperature;BMP_pressure;BME280_temperature;BME280_humidity;BME280_pressure;Samples;Min_cycle;Max_cycle;Signal;HPM_P1;HPM_P2
2021/12/24 00:00:40;;;;;;;39.17;19.73;;;;;;;-3.63;65.34;95076.19;5077912;28;20030;-70
2021/12/24 00:03:06;;;;;;;36.78;18.35;;;;;;;-3.60;64.88;95065.13;5094997;28;20097;-70
2021/12/24 00:05:32;;;;;;;38.17;18.45;;;;;;;-3.57;64.12;95070.13;5112056;28;20023;-70
2021/12/24 00:07:57;;;;;;;38.28;17.88;;;;;;;-3.62;65.06;95075.34;5094932;28;20040;-70
2021/12/24 00:10:23;;;;;;;32.65;17.30;;;;;;;-3.91;65.56;95080.25;5094848;28;20032;-70
2021/12/24 00:12:57;;;;;;;38.60;19.63;;;;;;;-3.94;65.44;95057.47;5078120;28;20032;-70
2021/12/24 00:18:05;;;;;;;40.53;22.15;;;;;;;-3.79;65.71;95072.34;5111797;28;20031;-70
2021/12/24 00:36:36;;;;;;;32.33;16.92;;;;;;;-3.48;64.36;95036.91;5112647;28;20080;-70
2021/12/24 00:39:01;;;;;;;33.92;17.75;;;;;;;-3.35;63.68;95057.75;5112776;28;20110;-70
2021/12/24 00:41:26;;;;;;;32.08;17.98;;;;;;;-3.33;63.78;95050.94;5112563;28;20385;-70
2021/12/24 00:43:52;;;;;;;34.92;18.55;;;;;;;-3.28;65.07;95053.38;5112613;28;20065;-69
2021/12/24 00:46:17;;;;;;;41.72;21.85;;;;;;;-3.34;64.09;95044.19;5112433;28;20080;-69
2021/12/24 00:48:44;;;;;;;31.55;19.25;;;;;;;-3.35;63.94;95036.59;5094316;28;20104;-69
2021/12/24 00:51:20;;;;;;;31.15;18.25;;;;;;;-3.28;64.70;95033.88;5111149;28;20062;-70
2021/12/24 00:56:15;;;;;;;49.90;23.98;;;;;;;-3.34;64.77;95018.78;5111006;28;20028;-69
2021/12/24 00:58:41;;;;;;;43.50;23.90;;;;;;;-3.44;64.76;95018.16;5094056;28;20096;-70
2021/12/24 01:01:07;;;;;;;46.40;23.75;;;;;;;-3.48;64.43;95006.44;5093976;28;20102;-70
2021/12/24 01:03:33;;;;;;;43.55;22.30;;;;;;;-3.45;64.77;95008.06;5093996;28;20118;-69
2021/12/24 01:05:58;;;;;;;33.22;18.98;;;;;;;-3.41;66.12;95000.31;5110727;28;20027;-70
2021/12/24 01:08:24;;;;;;;35.95;18.58;;;;;;;-3.38;65.86;94996.84;5110816;28;20035;-70
2021/12/24 01:10:52;;;;;;;34.78;18.80;;;;;;;-3.41;66.49;94991.84;5111846;28;20096;-69
2021/12/24 01:13:18;;;;;;;38.90;20.17;;;;;;;-3.39;65.43;94995.19;5110675;28;20046;-70
2021/12/24 01:18:49;;;;;;;38.38;21.38;;;;;;;-3.36;64.36;94984.94;5095070;28;20553;-70
2021/12/24 01:24:03;;;;;;;53.63;23.60;;;;;;;-4.00;66.52;95004.31;5096277;28;20051;-70
2021/12/24 01:29:37;;;;;;;60.38;29.70;;;;;;;-4.39;68.81;95001.81;5094312;28;20055;-69
2021/12/24 01:38:08;;;;;;;53.53;27.55;;;;;;;-3.99;67.20;94983.13;5068587;28;20484;-70
2021/12/24 01:43:18;;;;;;;51.83;27.23;;;;;;;-3.74;67.19;94979.13;5099620;28;20047;-69
2021/12/24 01:45:49;;;;;;;46.42;25.83;;;;;;;-3.72;66.74;94979.94;5110199;28;20080;-69
2021/12/24 01:48:14;;;;;;;47.72;25.45;;;;;;;-3.71;66.93;94961.28;5093076;28;20032;-70
2021/12/24 01:50:42;;;;;;;51.53;27.20;;;;;;;-3.62;66.02;94968.69;5110185;28;20030;-69
2021/12/24 01:53:07;;;;;;;49.83;27.70;;;;;;;-3.71;66.81;94973.97;5110001;28;20070;-69
2021/12/24 01:55:33;;;;;;;53.40;26.25;;;;;;;-3.70;66.75;94974.81;5111419;28;20451;-70
2021/12/24 01:57:58;;;;;;;47.15;23.25;;;;;;;-3.73;65.87;94954.56;5093034;28;20028;-69
2021/12/24 02:00:26;;;;;;;41.40;21.75;;;;;;;-3.71;65.97;94965.53;5110108;28;20023;-69
2021/12/24 02:02:52;;;;;;;38.20;21.20;;;;;;;-3.71;65.40;94968.88;5109936;28;20122;-69
2021/12/24 02:05:17;;;;;;;40.17;20.30;;;;;;;-3.71;66.48;94955.38;5093000;28;20030;-69
2021/12/24 02:07:43;;;;;;;33.97;18.95;;;;;;;-3.92;66.41;94952.50;5109888;28;20024;-70
2021/12/24 02:10:10;;;;;;;36.50;17.80;;;;;;;-4.76;66.97;94955.25;5109892;28;20405;-70
2021/12/24 02:12:36;;;;;;;39.17;19.58;;;;;;;-4.66;67.50;94960.94;5093064;28;20030;-70
2021/12/24 02:15:04;;;;;;;35.10;19.40;;;;;;;-4.61;66.76;94946.47;5111020;28;20023;-69
2021/12/24 02:28:31;;;;;;;29.67;16.33;;;;;;;-4.39;67.14;94920.66;5114987;28;20139;-69
2021/12/24 02:30:56;;;;;;;30.67;15.95;;;;;;;-4.43;66.38;94936.78;5100420;28;20038;-70
2021/12/24 02:33:22;;;;;;;29.27;15.85;;;;;;;-4.47;67.03;94927.59;5113700;28;20035;-69
2021/12/24 02:35:47;;;;;;;28.95;16.05;;;;;;;-4.61;67.19;94903.38;5096831;28;20096;-69
2021/12/24 02:38:12;;;;;;;27.60;14.57;;;;;;;-4.35;67.16;94930.66;5079807;28;20128;-69
2021/12/24 02:40:38;;;;;;;29.50;15.27;;;;;;;-4.28;67.03;94916.16;5113720;28;20051;-69
2021/12/24 02:43:04;;;;;;;23.48;13.57;;;;;;;-4.43;66.80;94899.59;5114733;28;20036;-69
2021/12/24 02:45:31;;;;;;;23.02;12.98;;;;;;;-4.47;65.53;94892.09;5113591;28;20039;-69
2021/12/24 02:55:56;;;;;;;19.67;11.70;;;;;;;-4.83;67.78;94892.88;5114629;28;20039;-69
2021/12/24 02:58:22;;;;;;;23.05;10.93;;;;;;;-4.78;66.76;94880.13;5114619;28;20024;-69
2021/12/24 03:00:47;;;;;;;15.93;8.40;;;;;;;-4.89;66.01;94871.91;5096299;28;20093;-69
2021/12/24 03:03:13;;;;;;;15.45;8.45;;;;;;;-5.09;66.06;94865.56;5113131;28;20106;-69
2021/12/24 03:05:38;;;;;;;15.88;8.32;;;;;;;-4.98;66.33;94871.25;5096240;28;20027;-69
2021/12/24 03:08:03;;;;;;;17.85;8.63;;;;;;;-5.01;66.70;94868.78;5113027;28;20097;-69
2021/12/24 03:10:29;;;;;;;17.25;9.95;;;;;;;-5.09;68.08;94865.56;5096080;28;20039;-69
2021/12/24 03:12:54;;;;;;;17.45;9.88;;;;;;;-5.48;68.37;94862.19;5112874;28;20028;-70
2021/12/24 03:15:22;;;;;;;18.92;9.88;;;;;;;-5.32;67.70;94862.69;5113045;28;20084;-69
2021/12/24 03:17:52;;;;;;;18.58;10.07;;;;;;;-5.87;68.39;94875.56;5113222;27;20047;-69
2021/12/24 03:20:18;;;;;;;37.75;20.38;;;;;;;-5.68;70.02;94880.28;5113071;28;20062;-69
2021/12/24 03:25:09;;;;;;;34.17;19.23;;;;;;;-5.60;69.74;94873.34;5113057;28;20043;-69
2021/12/24 03:27:34;;;;;;;55.42;23.55;;;;;;;-5.49;69.37;94884.13;5112578;28;20114;-69
2021/12/24 03:30:00;;;;;;;45.10;21.23;;;;;;;-5.44;69.33;94844.34;5112446;28;20048;-70
2021/12/24 03:32:25;;;;;;;40.03;20.30;;;;;;;-5.56;69.09;94857.25;5078751;28;20031;-69
2021/12/24 03:34:51;;;;;;;62.53;31.60;;;;;;;-5.43;69.29;94838.44;5094419;28;20118;-69
2021/12/24 03:37:16;;;;;;;34.45;18.35;;;;;;;-5.47;69.09;94858.78;5112594;28;20508;-69
2021/12/24 03:39:42;;;;;;;41.88;22.88;;;;;;;-5.42;69.10;94874.72;5095678;28;20035;-69
2021/12/24 03:42:07;;;;;;;44.45;21.15;;;;;;;-5.23;69.75;94857.44;5095394;28;20031;-69
2021/12/24 03:44:39;;;;;;;45.10;22.85;;;;;;;-5.67;69.50;94862.53;5095467;28;20031;-69
2021/12/24 03:47:12;;;;;;;43.83;21.85;;;;;;;-5.61;69.19;94849.75;5096386;28;20035;-69
2021/12/24 03:52:35;;;;;;;47.72;21.65;;;;;;;-5.74;69.85;94850.88;5112838;28;20550;-69
2021/12/24 03:55:01;;;;;;;37.50;19.42;;;;;;;-5.59;70.22;94842.13;5112444;28;20027;-69
2021/12/24 03:57:34;;;;;;;30.90;17.80;;;;;;;-5.52;69.56;94842.84;5112241;28;20050;-69
2021/12/24 04:00:13;;;;;;;34.22;18.13;;;;;;;-5.40;69.84;94840.06;5096008;28;20038;-69
2021/12/24 04:02:38;;;;;;;32.85;17.25;;;;;;;-5.40;69.52;94851.03;5112056;28;20476;-68
2021/12/24 04:05:04;;;;;;;37.47;17.80;;;;;;;-5.31;70.02;94837.34;5113144;28;20026;-69
2021/12/24 04:07:30;;;;;;;32.40;16.70;;;;;;;-5.39;69.55;94847.63;5111916;28;20027;-69
2021/12/24 04:10:02;;;;;;;37.08;18.85;;;;;;;-5.52;69.14;94795.56;5113032;28;20099;-70
2021/12/24 04:12:28;;;;;;;34.13;18.90;;;;;;;-5.32;69.26;94838.22;5112005;28;20024;-69
2021/12/24 04:14:53;;;;;;;35.05;18.90;;;;;;;-5.31;69.92;94836.50;5111812;28;20034;-69
2021/12/24 04:17:19;;;;;;;37.70;19.00;;;;;;;-5.31;69.66;94836.50;5094784;28;20028;-69
2021/12/24 04:25:13;;;;;;;40.33;22.38;;;;;;;-5.25;70.06;94819.47;5111825;28;20060;-69
2021/12/24 04:27:38;;;;;;;40.20;21.88;;;;;;;-5.19;69.23;94834.53;5111573;28;20024;-69
2021/12/24 04:30:10;;;;;;;39.08;21.15;;;;;;;-5.20;69.93;94849.78;5111289;28;20047;-69
2021/12/24 04:35:30;;;;;;;32.60;18.17;;;;;;;-5.59;70.55;94856.50;5112961;28;20080;-69
2021/12/24 04:51:43;;;;;;;36.63;19.05;;;;;;;-5.69;70.88;94830.50;5096954;28;20573;-69
2021/12/24 05:04:38;;;;;;;51.13;27.50;;;;;;;-5.54;70.72;94847.94;5112506;28;20028;-69
2021/12/24 05:07:27;;;;;;;42.67;22.48;;;;;;;-5.61;70.53;94836.25;5110850;28;20106;-69
2021/12/24 05:09:52;;;;;;;39.97;21.42;;;;;;;-5.57;70.47;94860.66;5096790;28;20425;-69
2021/12/24 05:12:17;;;;;;;61.75;31.52;;;;;;;-5.47;70.25;94852.00;5076822;28;20031;-69
2021/12/24 05:14:43;;;;;;;49.33;26.20;;;;;;;-5.45;70.10;94855.34;5110559;28;20040;-69
2021/12/24 05:22:36;;;;;;;45.88;23.17;;;;;;;-5.37;70.82;94867.03;5110591;28;20084;-69
2021/12/24 05:25:02;;;;;;;55.40;30.25;;;;;;;-5.69;72.52;94869.31;5093398;28;20028;-69
2021/12/24 05:27:27;;;;;;;57.22;29.98;;;;;;;-5.49;71.16;94853.75;5111701;28;20094;-70
2021/12/24 05:29:53;;;;;;;64.47;33.60;;;;;;;-5.47;71.68;94857.06;5110153;28;20128;-69
2021/12/24 05:32:18;;;;;;;65.30;34.03;;;;;;;-5.43;71.24;94871.34;5093543;28;20455;-69
2021/12/24 05:34:44;;;;;;;64.32;31.98;;;;;;;-5.39;71.36;94842.56;5093098;28;20081;-69
2021/12/24 05:37:11;;;;;;;59.83;28.75;;;;;;;-5.41;71.07;94859.47;5110577;28;20169;-69
2021/12/24 05:39:36;;;;;;;49.58;26.02;;;;;;;-5.44;71.85;94849.41;5093415;28;20497;-69
2021/12/24 05:42:03;;;;;;;37.08;19.58;;;;;;;-5.81;72.19;94849.31;5110254;28;20032;-69
2021/12/24 05:44:28;;;;;;;47.75;23.50;;;;;;;-5.69;72.05;94868.47;5111748;28;20046;-69
2021/12/24 05:46:54;;;;;;;40.58;21.02;;;;;;;-5.58;71.98;94845.50;5093281;28;20032;-69
2021/12/24 05:49:19;;;;;;;44.17;22.20;;;;;;;-5.50;71.32;94839.41;5111743;28;20108;-69
2021/12/24 05:51:45;;;;;;;33.40;18.25;;;;;;;-5.38;70.83;94835.78;5093232;28;20085;-69
2021/12/24 05:54:11;;;;;;;33.90;18.25;;;;;;;-5.27;71.12;94830.50;5110263;28;20032;-69
2021/12/24 05:56:36;;;;;;;30.05;17.38;;;;;;;-5.21;71.54;94821.09;5109247;28;20031;-70
2021/12/24 05:59:02;;;;;;;34.83;17.50;;;;;;;-5.19;70.84;94818.50;5110086;28;20061;-69
2021/12/24 06:01:28;;;;;;;43.80;26.48;;;;;;;-5.06;70.27;94821.59;5111240;28;20028;-69
2021/12/24 06:03:53;;;;;;;31.13;17.30;;;;;;;-5.01;70.72;94797.00;5110016;28;20106;-69
2021/12/24 06:06:19;;;;;;;29.35;15.45;;;;;;;-5.05;70.44;94808.88;5110057;28;20031;-69
2021/12/24 06:08:44;;;;;;;27.27;15.40;;;;;;;-4.91;69.29;94802.69;5111367;28;20035;-69
2021/12/24 06:11:10;;;;;;;48.17;25.77;;;;;;;-4.88;70.12;94797.53;5092988;28;20036;-69
2021/12/24 06:13:36;;;;;;;55.95;29.20;;;;;;;-5.10;70.87;94775.22;5109935;28;20032;-69
2021/12/24 06:16:02;;;;;;;42.13;22.83;;;;;;;-4.98;70.33;94791.88;5093141;28;20077;-69
2021/12/24 06:18:29;;;;;;;42.85;26.10;;;;;;;-4.80;69.70;94805.78;5111245;28;20019;-69
2021/12/24 06:20:56;;;;;;;58.95;32.15;;;;;;;-4.81;69.64;94814.28;5111069;28;20107;-68
2021/12/24 06:23:23;;;;;;;67.80;37.60;;;;;;;-4.72;69.86;94814.06;5092999;28;20031;-69
2021/12/24 06:25:49;;;;;;;72.60;37.95;;;;;;;-4.91;70.34;94818.72;5076265;28;20122;-69
2021/12/24 06:28:14;;;;;;;86.93;47.95;;;;;;;-4.87;70.56;94812.72;5109789;28;20038;-69
2021/12/24 06:30:41;;;;;;;76.22;39.33;;;;;;;-4.86;70.51;94838.91;5092600;28;20063;-69
2021/12/24 06:33:07;;;;;;;87.65;45.00;;;;;;;-4.70;70.92;94837.69;5109716;28;20030;-69
2021/12/24 06:35:32;;;;;;;78.55;37.50;;;;;;;-4.62;69.56;94829.91;5109784;28;20024;-68
2021/12/24 06:37:58;;;;;;;69.18;35.53;;;;;;;-4.47;69.47;94848.97;5092619;28;20409;-69
2021/12/24 06:40:24;;;;;;;60.15;34.67;;;;;;;-4.45;70.48;94858.22;5092743;28;20042;-69
2021/12/24 06:42:49;;;;;;;71.90;38.33;;;;;;;-4.40;70.69;94858.09;5109573;28;20039;-69
2021/12/24 06:45:22;;;;;;;87.70;48.28;;;;;;;-4.21;69.57;94886.38;5092597;28;20024;-68
2021/12/24 06:47:48;;;;;;;115.70;57.65;;;;;;;-4.08;69.48;94883.50;5110914;28;20542;-68
2021/12/24 06:50:13;;;;;;;77.93;38.35;;;;;;;-4.02;67.67;94857.13;5109556;28;20108;-69
2021/12/24 06:52:39;;;;;;;57.28;30.20;;;;;;;-3.84;67.42;94866.81;5092858;28;20066;-70
2021/12/24 06:55:05;;;;;;;46.38;24.95;;;;;;;-3.66;67.44;94873.13;5092500;28;20497;-69
2021/12/24 06:57:30;;;;;;;42.42;22.27;;;;;;;-3.61;67.37;94842.53;5109512;28;20031;-69
2021/12/24 06:59:55;;;;;;;36.22;19.27;;;;;;;-3.40;66.73;94836.00;5110658;28;20085;-69
2021/12/24 07:02:21;;;;;;;36.80;17.67;;;;;;;-3.22;66.11;94844.81;5109336;28;20485;-69
2021/12/24 07:04:46;;;;;;;35.25;20.90;;;;;;;-3.15;66.75;94831.03;5092601;28;20032;-69
2021/12/24 07:07:12;;;;;;;28.90;17.63;;;;;;;-3.10;66.08;94836.84;5109466;28;20023;-69
2021/12/24 07:09:42;;;;;;;32.55;18.70;;;;;;;-3.06;66.67;94835.06;5095756;28;20501;-69
2021/12/24 07:12:12;;;;;;;29.45;16.17;;;;;;;-3.00;66.64;94837.41;5080510;28;20028;-69
2021/12/24 07:14:38;;;;;;;25.52;15.00;;;;;;;-2.91;65.30;94839.66;5112859;28;20016;-69
2021/12/24 07:17:04;;;;;;;20.13;12.35;;;;;;;-2.80;64.18;94831.72;5112915;28;20491;-69
2021/12/24 07:19:29;;;;;;;22.02;12.07;;;;;;;-2.70;62.64;94838.19;5079126;28;20241;-69
2021/12/24 07:21:55;;;;;;;21.27;11.23;;;;;;;-2.53;61.37;94835.13;5112876;28;20039;-69
2021/12/24 07:24:20;;;;;;;19.90;10.55;;;;;;;-2.49;62.22;94826.50;5112838;28;20039;-69
2021/12/24 07:26:46;;;;;;;76.90;35.85;;;;;;;-2.67;64.21;94827.06;5112841;28;20031;-69
2021/12/24 07:29:11;;;;;;;99.78;46.90;;;;;;;-2.65;64.10;94817.69;5112405;28;20061;-69
2021/12/24 07:31:37;;;;;;;112.65;54.60;;;;;;;-2.63;64.56;94810.84;5112608;28;20028;-69
2021/12/24 07:34:02;;;;;;;134.98;69.82;;;;;;;-2.63;64.17;94819.31;5112607;28;20089;-69
2021/12/24 07:36:28;;;;;;;124.45;60.65;;;;;;;-2.53;64.60;94827.50;5095581;28;20142;-69
2021/12/24 07:38:53;;;;;;;136.73;67.82;;;;;;;-2.47;64.09;94829.84;5095534;28;20050;-69
2021/12/24 07:41:19;;;;;;;143.75;71.55;;;;;;;-2.41;64.60;94832.19;5113717;27;20024;-69
2021/12/24 07:43:44;;;;;;;98.47;50.70;;;;;;;-2.31;63.95;94838.66;5095155;28;20031;-69
2021/12/24 07:46:10;;;;;;;92.53;50.88;;;;;;;-2.30;64.00;94836.91;5112412;28;20047;-69
2021/12/24 07:48:44;;;;;;;103.07;54.33;;;;;;;-2.23;63.87;94837.53;5095250;28;20027;-69
2021/12/24 07:53:35;;;;;;;97.88;53.47;;;;;;;-2.03;63.60;94835.19;5112264;28;20035;-69
2021/12/24 07:56:00;;;;;;;106.45;57.40;;;;;;;-1.93;62.60;94833.97;5095171;28;20489;-69
2021/12/24 07:58:26;;;;;;;109.32;55.20;;;;;;;-1.90;62.57;94830.50;5113484;28;20039;-69
2021/12/24 08:00:51;;;;;;;111.35;56.33;;;;;;;-1.80;62.55;94824.22;5113256;28;20096;-70
2021/12/24 08:03:17;;;;;;;123.88;61.22;;;;;;;-1.64;62.49;94821.97;5111924;28;20035;-69
2021/12/24 08:05:43;;;;;;;142.43;74.93;;;;;;;-1.53;62.35;94849.59;5112004;28;20027;-70
2021/12/24 08:08:09;;;;;;;121.70;66.53;;;;;;;-1.61;62.12;94829.50;5111986;28;20031;-69
2021/12/24 08:10:35;;;;;;;107.05;57.65;;;;;;;-1.48;61.52;94842.63;5113166;28;20028;-70
2021/12/24 08:13:01;;;;;;;104.70;57.58;;;;;;;-1.34;61.03;94825.13;5113098;28;20035;-69
2021/12/24 08:15:27;;;;;;;76.55;42.83;;;;;;;-1.19;60.56;94844.16;5094992;28;20063;-70
2021/12/24 08:17:52;;;;;;;63.42;36.45;;;;;;;-1.05;60.47;94841.09;5113005;28;20051;-69
2021/12/24 08:20:22;;;;;;;47.13;25.48;;;;;;;-1.21;59.03;94802.56;5110939;28;20405;-69
2021/12/24 08:22:49;;;;;;;47.83;26.58;;;;;;;-0.97;58.39;94819.50;5111756;28;20134;-69
2021/12/24 08:25:15;;;;;;;44.55;25.40;;;;;;;-0.96;59.11;94816.06;5111581;28;20056;-69
2021/12/24 08:27:40;;;;;;;47.45;25.77;;;;;;;-0.97;58.37;94809.31;5111635;28;20023;-69
2021/12/24 08:30:08;;;;;;;45.70;25.60;;;;;;;-0.82;58.13;94807.88;5111228;28;20077;-69
2021/12/24 08:32:37;;;;;;;66.50;34.92;;;;;;;-0.79;58.09;94810.31;5112612;28;20023;-69
2021/12/24 08:35:07;;;;;;;68.78;36.45;;;;;;;-0.93;58.65;94789.59;5095036;28;20024;-69
2021/12/24 08:37:33;;;;;;;44.78;22.50;;;;;;;-0.66;57.27;94781.78;5094242;28;20031;-69
2021/12/24 08:39:58;;;;;;;45.88;23.52;;;;;;;-0.75;57.61;94782.97;5111246;28;20039;-69
2021/12/24 08:42:23;;;;;;;48.85;27.25;;;;;;;-0.62;57.95;94779.03;5094259;28;20035;-69
2021/12/24 08:44:49;;;;;;;44.05;23.73;;;;;;;-0.46;58.40;94777.53;5094439;28;20076;-69
2021/12/24 08:47:14;;;;;;;37.90;21.10;;;;;;;-0.32;58.43;94774.41;5094185;28;20053;-68
2021/12/24 08:49:40;;;;;;;62.20;32.30;;;;;;;-0.23;57.40;94776.56;5112744;28;20031;-69
2021/12/24 08:52:06;;;;;;;72.20;38.13;;;;;;;-0.10;56.99;94771.81;5094055;28;20023;-70
2021/12/24 08:54:31;;;;;;;38.92;21.70;;;;;;;-0.06;57.09;94758.00;5112708;28;20449;-68
2021/12/24 08:56:57;;;;;;;48.92;27.35;;;;;;;-0.02;57.10;94774.03;5112229;28;20066;-69
2021/12/24 08:59:23;;;;;;;33.25;17.55;;;;;;;0.16;56.27;94773.25;5094196;28;20119;-67
2021/12/24 09:01:49;;;;;;;27.60;15.43;;;;;;;0.25;55.64;94777.13;5093968;28;20039;-69
2021/12/24 09:04:14;;;;;;;23.75;13.85;;;;;;;0.31;54.97;94771.78;5112399;28;20400;-69
2021/12/24 09:06:40;;;;;;;22.48;12.52;;;;;;;0.48;54.80;94765.91;5112374;28;20500;-69
2021/12/24 09:09:10;;;;;;;24.25;13.80;;;;;;;0.33;54.89;94759.72;5093907;28;20417;-69
2021/12/24 09:11:40;;;;;;;21.70;12.13;;;;;;;0.35;54.33;94736.69;5110907;28;20071;-69
2021/12/24 09:14:05;;;;;;;22.92;14.98;;;;;;;0.67;54.53;94763.38;5077413;28;20477;-69
2021/12/24 09:16:32;;;;;;;25.75;15.38;;;;;;;0.80;54.42;94771.31;5093781;28;20061;-69
2021/12/24 09:19:03;;;;;;;22.80;14.07;;;;;;;0.95;53.88;94756.97;5076775;28;20618;-70
2021/12/24 09:21:29;;;;;;;26.33;14.00;;;;;;;0.93;53.31;94756.25;5111928;28;20035;-70
2021/12/24 09:23:57;;;;;;;22.85;14.30;;;;;;;1.06;53.59;94749.66;5110467;28;20032;-67
2021/12/24 09:26:29;;;;;;;24.85;11.52;;;;;;;0.96;53.64;94759.47;5094178;27;20039;-67
2021/12/24 09:28:58;;;;;;;20.95;11.60;;;;;;;0.86;54.17;94738.63;5078162;28;20519;-69
2021/12/24 09:31:24;;;;;;;20.17;13.10;;;;;;;1.16;53.99;94747.50;5110405;28;20035;-69
2021/12/24 09:33:50;;;;;;;21.98;12.50;;;;;;;1.23;53.45;94743.75;5076497;28;20028;-69
2021/12/24 09:36:22;;;;;;;24.65;13.43;;;;;;;1.40;53.63;94742.94;5110370;28;20458;-69
2021/12/24 09:38:47;;;;;;;28.30;13.23;;;;;;;1.26;53.59;94731.63;5110402;28;20050;-68
2021/12/24 09:41:13;;;;;;;23.90;13.90;;;;;;;1.36;53.56;94718.38;5110365;28;20497;-68
2021/12/24 09:43:38;;;;;;;23.92;13.60;;;;;;;1.50;52.28;94739.84;5110172;28;20077;-68
2021/12/24 09:46:04;;;;;;;25.65;12.50;;;;;;;1.44;53.04;94736.75;5093200;28;20024;-68
2021/12/24 09:48:29;;;;;;;30.00;14.45;;;;;;;1.67;52.85;94739.03;5093092;28;20100;-68
2021/12/24 09:50:54;;;;;;;27.35;13.68;;;;;;;1.56;52.69;94716.53;5110138;28;20024;-68
2021/12/24 09:53:20;;;;;;;26.20;13.98;;;;;;;1.84;52.35;94710.03;5093145;28;20036;-68
2021/12/24 09:55:45;;;;;;;21.40;12.80;;;;;;;1.93;52.06;94713.84;5110168;28;20491;-68
2021/12/24 09:58:11;;;;;;;29.23;15.25;;;;;;;1.88;52.54;94705.56;5111310;28;20484;-68
2021/12/24 10:00:36;;;;;;;29.40;15.73;;;;;;;2.01;52.17;94709.19;5093260;28;20578;-68
2021/12/24 10:03:01;;;;;;;27.90;15.63;;;;;;;2.10;51.67;94715.56;5109887;28;20042;-68
2021/12/24 10:05:28;;;;;;;29.10;17.08;;;;;;;2.23;51.46;94717.41;5111338;28;20062;-68
2021/12/24 10:08:19;;;;;;;29.50;14.43;;;;;;;2.19;51.74;94708.22;5092881;28;20027;-68
2021/12/24 10:10:47;;;;;;;26.50;14.25;;;;;;;2.19;51.01;94679.19;5110028;28;20405;-68
2021/12/24 10:13:31;;;;;;;24.73;14.95;;;;;;;2.39;51.60;94684.09;5111128;28;20032;-68
2021/12/24 10:15:58;;;;;;;27.27;14.90;;;;;;;2.55;51.39;94680.72;5111162;28;20153;-67
2021/12/24 10:18:43;;;;;;;27.27;14.60;;;;;;;2.59;50.97;94687.34;5092859;28;20031;-68
2021/12/24 10:21:10;;;;;;;28.33;14.73;;;;;;;2.62;50.79;94674.38;5109840;28;20081;-68
2021/12/24 10:23:54;;;;;;;26.83;15.13;;;;;;;2.52;50.76;94661.19;5109737;28;20473;-68
2021/12/24 10:26:27;;;;;;;29.33;15.65;;;;;;;2.78;50.90;94682.03;5109839;28;20023;-67
2021/12/24 10:28:56;;;;;;;38.00;19.50;;;;;;;2.69;50.34;94665.41;5109580;28;20089;-68
2021/12/24 10:31:24;;;;;;;29.10;15.63;;;;;;;2.82;50.93;94657.91;5109835;28;20080;-68
2021/12/24 10:34:29;;;;;;;30.98;17.23;;;;;;;3.01;50.64;94653.41;5110789;28;20027;-68
2021/12/24 10:37:01;;;;;;;36.03;16.92;;;;;;;3.16;50.39;94650.88;5088190;28;20032;-68
2021/12/24 10:39:29;;;;;;;36.28;17.10;;;;;;;3.26;49.85;94641.72;5071639;28;20043;-68
2021/12/24 10:41:55;;;;;;;26.17;15.50;;;;;;;3.16;49.67;94628.59;5082808;28;20044;-67
2021/12/24 10:44:25;;;;;;;35.30;18.58;;;;;;;3.36;49.53;94617.19;5112789;28;20042;-68
2021/12/24 10:47:03;;;;;;;29.60;17.00;;;;;;;3.62;49.14;94623.38;5097024;28;20042;-68
2021/12/24 10:54:57;;;;;;;36.55;19.40;;;;;;;3.85;48.87;94616.06;5113721;28;20163;-68
2021/12/24 10:57:29;;;;;;;33.42;18.75;;;;;;;3.97;48.96;94593.00;5114570;28;20043;-68
2021/12/24 10:59:57;;;;;;;36.47;19.35;;;;;;;4.15;48.76;94598.81;5096859;28;20040;-68
2021/12/24 11:02:30;;;;;;;35.67;18.92;;;;;;;4.20;48.83;94595.94;5114479;28;20023;-68
2021/12/24 11:04:56;;;;;;;39.63;20.58;;;;;;;4.19;48.66;94576.28;5096786;28;20089;-68
2021/12/24 11:07:41;;;;;;;33.30;17.67;;;;;;;4.24;48.48;94569.94;5114356;28;20023;-70
2021/12/24 11:10:12;;;;;;;33.22;15.80;;;;;;;4.37;48.47;94572.56;5114267;28;20038;-68
2021/12/24 11:12:43;;;;;;;37.47;20.90;;;;;;;4.43;49.03;94572.19;5113031;28;20444;-68
2021/12/24 11:15:18;;;;;;;41.08;19.58;;;;;;;4.57;48.05;94575.63;5113092;28;20069;-68
2021/12/24 11:17:43;;;;;;;38.95;20.52;;;;;;;4.48;48.35;94554.75;5114218;28;20020;-68
2021/12/24 11:20:10;;;;;;;37.55;20.17;;;;;;;4.67;47.99;94553.56;5114082;28;20093;-68
2021/12/24 11:22:55;;;;;;;44.13;23.70;;;;;;;4.81;48.11;94550.91;5095936;28;20103;-68
2021/12/24 11:25:21;;;;;;;40.53;19.88;;;;;;;4.87;48.00;94547.94;5112857;28;20032;-69
2021/12/24 11:27:46;;;;;;;46.78;22.65;;;;;;;4.88;47.76;94538.50;5095744;28;20501;-68
2021/12/24 11:30:12;;;;;;;35.13;18.67;;;;;;;4.95;47.32;94552.59;5113675;28;20039;-68
2021/12/24 11:32:37;;;;;;;33.90;17.90;;;;;;;4.91;47.77;94531.38;5112567;28;20038;-68
2021/12/24 11:35:03;;;;;;;31.17;17.25;;;;;;;5.13;47.56;94525.66;5078540;28;20027;-68
2021/12/24 11:37:29;;;;;;;41.80;20.60;;;;;;;5.17;47.51;94513.41;5113731;27;20031;-69
2021/12/24 11:39:54;;;;;;;34.72;17.95;;;;;;;5.29;47.49;94520.34;5095440;28;20036;-68
2021/12/24 11:42:21;;;;;;;41.30;21.20;;;;;;;5.23;47.08;94532.78;5112421;28;20039;-68
2021/12/24 11:44:46;;;;;;;42.28;21.65;;;;;;;5.29;47.15;94535.78;5113845;27;20114;-68
2021/12/24 11:47:12;;;;;;;40.88;22.13;;;;;;;5.32;46.89;94540.72;5109225;27;20093;-68
2021/12/24 11:49:37;;;;;;;36.10;17.55;;;;;;;5.32;47.16;94547.59;5078550;28;20096;-68
2021/12/24 11:52:03;;;;;;;38.15;19.27;;;;;;;5.45;47.37;94542.47;5129186;27;20462;-68
2021/12/24 11:54:29;;;;;;;42.58;19.42;;;;;;;5.52;46.90;94536.00;5097916;27;20457;-68
2021/12/24 11:56:56;;;;;;;36.22;18.50;;;;;;;5.60;46.90;94546.63;5132723;27;20027;-68
2021/12/24 11:59:35;;;;;;;35.45;17.55;;;;;;;5.73;46.72;94549.97;5132864;27;20141;-68
2021/12/24 12:02:01;;;;;;;34.88;16.88;;;;;;;5.70;46.81;94537.31;5115581;27;20031;-68
2021/12/24 12:04:27;;;;;;;32.42;16.30;;;;;;;5.92;46.61;94548.75;5132667;27;20039;-68
2021/12/24 12:06:52;;;;;;;33.10;18.45;;;;;;;5.95;46.58;94543.41;5115483;27;20031;-68
2021/12/24 12:09:18;;;;;;;34.95;18.52;;;;;;;5.91;46.40;94553.09;5115303;27;20084;-68
2021/12/24 12:11:44;;;;;;;30.88;16.83;;;;;;;5.97;46.20;94547.53;5133763;27;20042;-68
2021/12/24 12:14:14;;;;;;;38.55;18.08;;;;;;;6.02;46.17;94553.19;5132315;27;20378;-68
2021/12/24 12:16:39;;;;;;;32.38;15.80;;;;;;;6.10;46.03;94552.66;5133682;27;20060;-69
2021/12/24 12:19:38;;;;;;;25.45;13.77;;;;;;;6.17;46.23;94548.72;5133774;27;20027;-68
2021/12/24 12:24:59;;;;;;;32.20;14.05;;;;;;;6.18;46.04;94534.88;5133810;27;20458;-68
2021/12/24 12:27:36;;;;;;;31.05;14.27;;;;;;;6.21;45.86;94539.84;5132305;27;20092;-68
2021/12/24 12:30:18;;;;;;;28.48;12.90;;;;;;;6.20;46.05;94532.22;5133197;27;20058;-68
2021/12/24 12:32:43;;;;;;;24.58;12.45;;;;;;;6.17;46.27;94499.72;5133352;27;20023;-68
2021/12/24 12:35:09;;;;;;;24.02;11.95;;;;;;;6.31;46.29;94514.22;5133134;27;20030;-68
2021/12/24 12:37:56;;;;;;;23.48;12.88;;;;;;;6.38;46.63;94514.59;5132002;27;20562;-69
2021/12/24 12:40:21;;;;;;;39.25;19.42;;;;;;;6.45;46.47;94526.13;5133142;27;20540;-68
2021/12/24 12:42:54;;;;;;;19.60;11.77;;;;;;;6.30;46.37;94516.94;5132905;27;20156;-68
2021/12/24 12:45:23;;;;;;;22.00;11.35;;;;;;;6.52;45.61;94513.63;5133002;27;20458;-68
2021/12/24 12:47:57;;;;;;;20.40;10.82;;;;;;;6.65;45.46;94504.06;5114629;27;20034;-69
2021/12/24 12:50:22;;;;;;;19.33;10.07;;;;;;;6.64;45.57;94495.50;5131730;27;20106;-69
2021/12/24 12:52:48;;;;;;;20.98;10.65;;;;;;;6.76;45.36;94505.88;5097782;27;20070;-69
2021/12/24 12:55:29;;;;;;;18.38;10.30;;;;;;;6.75;45.58;94511.97;5132747;27;20023;-69
2021/12/24 12:58:21;;;;;;;17.05;9.80;;;;;;;6.69;46.84;94505.50;5132805;27;20071;-68
2021/12/24 13:01:16;;;;;;;17.73;10.13;;;;;;;6.50;47.27;94498.25;5132736;27;20058;-68
2021/12/24 13:04:03;;;;;;;17.10;9.40;;;;;;;6.43;47.65;94490.13;5129646;27;20093;-69
2021/12/24 13:06:36;;;;;;;19.88;9.77;;;;;;;6.25;48.49;94505.16;5132342;27;20056;-69
2021/12/24 13:09:05;;;;;;;21.48;9.18;;;;;;;6.19;48.70;94500.44;5132802;27;20038;-69
2021/12/24 13:11:35;;;;;;;15.65;8.45;;;;;;;6.22;47.16;94494.25;5132501;27;20035;-69
2021/12/24 13:14:02;;;;;;;14.55;9.07;;;;;;;6.24;47.56;94490.63;5114223;27;20073;-68